sensor_id;sensor_type;location;lat;lon;timestamp;P1;durP1;ratioP1;P2;durP2;ratioP2
41653;SDS011;68687;52.030;7.110;2023-05-07T00:02:03;21.30;;;19.08;;
41653;SDS011;68687;52.030;7.110;2023-05-07T00:04:29;22.55;;;19.45;;
41653;SDS011;68687;52.030;7.110;2023-05-07T00:07:00;22.40;;;18.90;;
41653;SDS011;68687;52.030;7.110;2023-05-07T00:09:26;25.45;;;19.42;;
41653;SDS011;68687;52.030;7.110;2023-05-07T00:11:51;22.15;;;17.98;;
41653;SDS011;68687;52.030;7.110;2023-05-07T00:14:19;22.92;;;18.55;;
41653;SDS011;68687;52.030;7.110;2023-05-07T00:16:45;23.10;;;19.10;;
41653;SDS011;68687;52.030;7.110;2023-05-07T00:19:11;24.40;;;20.02;;
41653;SDS011;68687;52.030;7.110;2023-05-07T00:21:36;23.40;;;19.50;;
41653;SDS011;68687;52.030;7.110;2023-05-07T00:24:01;21.15;;;18.90;;
41653;SDS011;68687;52.030;7.110;2023-05-07T00:26:27;23.75;;;20.02;;
41653;SDS011;68687;52.030;7.110;2023-05-07T00:28:52;27.27;;;20.40;;
41653;SDS011;68687;52.030;7.110;2023-05-07T00:31:20;21.90;;;18.92;;
41653;SDS011;68687;52.030;7.110;2023-05-07T00:33:45;24.13;;;21.33;;
41653;SDS011;68687;52.030;7.110;2023-05-07T00:36:11;23.33;;;19.73;;
41653;SDS011;68687;52.030;7.110;2023-05-07T00:38:36;23.50;;;19.70;;
41653;SDS011;68687;52.030;7.110;2023-05-07T00:41:02;22.60;;;20.23;;
41653;SDS011;68687;52.030;7.110;2023-05-07T00:43:27;24.92;;;21.50;;
41653;SDS011;68687;52.030;7.110;2023-05-07T00:45:53;23.85;;;21.30;;
41653;SDS011;68687;52.030;7.110;2023-05-07T00:48:18;21.65;;;19.25;;
41653;SDS011;68687;52.030;7.110;2023-05-07T00:50:44;24.88;;;20.40;;
41653;SDS011;68687;52.030;7.110;2023-05-07T00:53:10;25.42;;;20.65;;
41653;SDS011;68687;52.030;7.110;2023-05-07T00:55:36;27.10;;;22.38;;
41653;SDS011;68687;52.030;7.110;2023-05-07T00:58:02;24.85;;;22.17;;
41653;SDS011;68687;52.030;7.110;2023-05-07T01:00:27;27.95;;;23.80;;
41653;SDS011;68687;52.030;7.110;2023-05-07T01:02:53;27.13;;;22.33;;
41653;SDS011;68687;52.030;7.110;2023-05-07T01:05:21;26.00;;;22.13;;
41653;SDS011;68687;52.030;7.110;2023-05-07T01:07:52;28.42;;;22.75;;
41653;SDS011;68687;52.030;7.110;2023-05-07T01:10:19;25.95;;;22.83;;
41653;SDS011;68687;52.030;7.110;2023-05-07T01:12:45;26.75;;;22.13;;
41653;SDS011;68687;52.030;7.110;2023-05-07T01:15:13;27.33;;;22.08;;
41653;SDS011;68687;52.030;7.110;2023-05-07T01:17:40;27.15;;;22.55;;
41653;SDS011;68687;52.030;7.110;2023-05-07T01:20:07;26.48;;;22.58;;
41653;SDS011;68687;52.030;7.110;2023-05-07T01:22:36;26.73;;;22.20;;
41653;SDS011;68687;52.030;7.110;2023-05-07T01:25:03;30.08;;;23.70;;
41653;SDS011;68687;52.030;7.110;2023-05-07T01:27:29;26.38;;;22.58;;
41653;SDS011;68687;52.030;7.110;2023-05-07T01:29:54;27.10;;;20.75;;
41653;SDS011;68687;52.030;7.110;2023-05-07T01:32:35;23.75;;;21.15;;
41653;SDS011;68687;52.030;7.110;2023-05-07T01:35:15;27.27;;;21.58;;
41653;SDS011;68687;52.030;7.110;2023-05-07T01:37:47;28.02;;;22.23;;
41653;SDS011;68687;52.030;7.110;2023-05-07T01:40:14;27.50;;;22.05;;
41653;SDS011;68687;52.030;7.110;2023-05-07T01:42:40;29.20;;;21.90;;
41653;SDS011;68687;52.030;7.110;2023-05-07T01:45:08;26.80;;;20.45;;
41653;SDS011;68687;52.030;7.110;2023-05-07T01:47:49;25.23;;;19.90;;
41653;SDS011;68687;52.030;7.110;2023-05-07T01:50:15;26.08;;;20.05;;
41653;SDS011;68687;52.030;7.110;2023-05-07T01:52:43;24.55;;;20.65;;
41653;SDS011;68687;52.030;7.110;2023-05-07T01:55:08;26.95;;;20.10;;
41653;SDS011;68687;52.030;7.110;2023-05-07T01:57:34;28.75;;;20.42;;
41653;SDS011;68687;52.030;7.110;2023-05-07T01:59:59;24.98;;;19.83;;
41653;SDS011;68687;52.030;7.110;2023-05-07T02:02:27;25.35;;;20.42;;
41653;SDS011;68687;52.030;7.110;2023-05-07T02:04:53;27.50;;;21.13;;
41653;SDS011;68687;52.030;7.110;2023-05-07T02:07:18;30.15;;;21.67;;
41653;SDS011;68687;52.030;7.110;2023-05-07T02:09:43;31.45;;;23.35;;
41653;SDS011;68687;52.030;7.110;2023-05-07T02:12:08;30.75;;;20.85;;
41653;SDS011;68687;52.030;7.110;2023-05-07T02:14:34;31.20;;;22.70;;
41653;SDS011;68687;52.030;7.110;2023-05-07T02:16:59;29.17;;;21.83;;
41653;SDS011;68687;52.030;7.110;2023-05-07T02:19:27;31.10;;;22.30;;
41653;SDS011;68687;52.030;7.110;2023-05-07T02:22:01;28.85;;;21.55;;
41653;SDS011;68687;52.030;7.110;2023-05-07T02:24:29;32.35;;;21.40;;
41653;SDS011;68687;52.030;7.110;2023-05-07T02:27:01;32.47;;;23.35;;
41653;SDS011;68687;52.030;7.110;2023-05-07T02:29:30;36.08;;;24.42;;
41653;SDS011;68687;52.030;7.110;2023-05-07T02:31:55;29.85;;;22.77;;
41653;SDS011;68687;52.030;7.110;2023-05-07T02:34:20;32.78;;;24.23;;
41653;SDS011;68687;52.030;7.110;2023-05-07T02:36:46;33.95;;;23.60;;
41653;SDS011;68687;52.030;7.110;2023-05-07T02:39:12;32.17;;;23.60;;
41653;SDS011;68687;52.030;7.110;2023-05-07T02:41:37;33.53;;;23.52;;
41653;SDS011;68687;52.030;7.110;2023-05-07T02:44:03;40.08;;;24.75;;
41653;SDS011;68687;52.030;7.110;2023-05-07T02:46:31;35.28;;;24.73;;
41653;SDS011;68687;52.030;7.110;2023-05-07T02:48:57;35.50;;;24.13;;
41653;SDS011;68687;52.030;7.110;2023-05-07T02:51:25;37.78;;;25.02;;
41653;SDS011;68687;52.030;7.110;2023-05-07T02:53:51;38.47;;;24.92;;
41653;SDS011;68687;52.030;7.110;2023-05-07T02:56:17;42.15;;;27.88;;
41653;SDS011;68687;52.030;7.110;2023-05-07T02:58:42;47.30;;;28.92;;
41653;SDS011;68687;52.030;7.110;2023-05-07T03:01:07;38.92;;;28.05;;
41653;SDS011;68687;52.030;7.110;2023-05-07T03:03:33;44.05;;;29.20;;
41653;SDS011;68687;52.030;7.110;2023-05-07T03:05:59;40.13;;;28.02;;
41653;SDS011;68687;52.030;7.110;2023-05-07T03:08:24;48.88;;;29.73;;
41653;SDS011;68687;52.030;7.110;2023-05-07T03:10:49;46.80;;;29.45;;
41653;SDS011;68687;52.030;7.110;2023-05-07T03:13:18;45.85;;;29.35;;
41653;SDS011;68687;52.030;7.110;2023-05-07T03:15:47;45.88;;;29.27;;
41653;SDS011;68687;52.030;7.110;2023-05-07T03:18:12;46.13;;;30.35;;
41653;SDS011;68687;52.030;7.110;2023-05-07T03:20:43;46.33;;;29.45;;
41653;SDS011;68687;52.030;7.110;2023-05-07T03:23:09;49.60;;;31.15;;
41653;SDS011;68687;52.030;7.110;2023-05-07T03:25:34;52.17;;;30.35;;
41653;SDS011;68687;52.030;7.110;2023-05-07T03:27:59;48.58;;;31.25;;
41653;SDS011;68687;52.030;7.110;2023-05-07T03:30:27;46.10;;;30.23;;
41653;SDS011;68687;52.030;7.110;2023-05-07T03:32:53;47.22;;;31.17;;
41653;SDS011;68687;52.030;7.110;2023-05-07T03:35:21;46.20;;;30.90;;
41653;SDS011;68687;52.030;7.110;2023-05-07T03:37:46;48.13;;;31.17;;
41653;SDS011;68687;52.030;7.110;2023-05-07T03:40:12;44.13;;;30.25;;
41653;SDS011;68687;52.030;7.110;2023-05-07T03:42:37;45.50;;;29.83;;
41653;SDS011;68687;52.030;7.110;2023-05-07T03:45:02;43.72;;;29.88;;
41653;SDS011;68687;52.030;7.110;2023-05-07T03:47:31;52.58;;;31.95;;
41653;SDS011;68687;52.030;7.110;2023-05-07T03:49:56;49.10;;;30.45;;
41653;SDS011;68687;52.030;7.110;2023-05-07T03:52:21;47.60;;;31.48;;
41653;SDS011;68687;52.030;7.110;2023-05-07T03:54:53;43.55;;;31.13;;
41653;SDS011;68687;52.030;7.110;2023-05-07T03:57:19;49.47;;;31.02;;
41653;SDS011;68687;52.030;7.110;2023-05-07T03:59:45;49.33;;;31.88;;
41653;SDS011;68687;52.030;7.110;2023-05-07T04:02:10;51.15;;;32.03;;
41653;SDS011;68687;52.030;7.110;2023-05-07T04:04:35;49.08;;;32.70;;
41653;SDS011;68687;52.030;7.110;2023-05-07T04:07:04;43.30;;;29.48;;
41653;SDS011;68687;52.030;7.110;2023-05-07T04:09:29;46.78;;;30.35;;
41653;SDS011;68687;52.030;7.110;2023-05-07T04:11:54;48.15;;;32.28;;
41653;SDS011;68687;52.030;7.110;2023-05-07T04:14:20;50.17;;;31.08;;
41653;SDS011;68687;52.030;7.110;2023-05-07T04:16:48;48.50;;;31.75;;
41653;SDS011;68687;52.030;7.110;2023-05-07T04:19:13;45.72;;;30.10;;
41653;SDS011;68687;52.030;7.110;2023-05-07T04:21:38;54.55;;;33.20;;
41653;SDS011;68687;52.030;7.110;2023-05-07T04:24:05;44.85;;;30.77;;
41653;SDS011;68687;52.030;7.110;2023-05-07T04:26:30;47.75;;;31.25;;
41653;SDS011;68687;52.030;7.110;2023-05-07T04:28:56;51.00;;;31.75;;
41653;SDS011;68687;52.030;7.110;2023-05-07T04:31:24;52.05;;;31.70;;
41653;SDS011;68687;52.030;7.110;2023-05-07T04:33:49;44.90;;;29.98;;
41653;SDS011;68687;52.030;7.110;2023-05-07T04:36:16;48.97;;;31.70;;
41653;SDS011;68687;52.030;7.110;2023-05-07T04:38:41;48.67;;;31.63;;
41653;SDS011;68687;52.030;7.110;2023-05-07T04:41:08;49.03;;;31.42;;
41653;SDS011;68687;52.030;7.110;2023-05-07T04:43:33;46.65;;;32.15;;
41653;SDS011;68687;52.030;7.110;2023-05-07T04:45:59;48.92;;;30.80;;
41653;SDS011;68687;52.030;7.110;2023-05-07T04:48:24;46.33;;;30.65;;
41653;SDS011;68687;52.030;7.110;2023-05-07T04:50:50;55.03;;;32.10;;
41653;SDS011;68687;52.030;7.110;2023-05-07T04:53:16;49.70;;;32.13;;
41653;SDS011;68687;52.030;7.110;2023-05-07T04:55:42;51.85;;;31.60;;
41653;SDS011;68687;52.030;7.110;2023-05-07T04:58:08;53.83;;;32.75;;
41653;SDS011;68687;52.030;7.110;2023-05-07T05:00:34;46.17;;;31.02;;
41653;SDS011;68687;52.030;7.110;2023-05-07T05:03:02;44.78;;;31.10;;
41653;SDS011;68687;52.030;7.110;2023-05-07T05:05:28;48.00;;;31.50;;
41653;SDS011;68687;52.030;7.110;2023-05-07T05:07:53;44.20;;;30.55;;
41653;SDS011;68687;52.030;7.110;2023-05-07T05:10:21;48.85;;;31.70;;
41653;SDS011;68687;52.030;7.110;2023-05-07T05:12:53;52.03;;;32.50;;
41653;SDS011;68687;52.030;7.110;2023-05-07T05:15:18;52.88;;;33.33;;
41653;SDS011;68687;52.030;7.110;2023-05-07T05:17:44;44.63;;;29.38;;
41653;SDS011;68687;52.030;7.110;2023-05-07T05:20:12;49.63;;;31.15;;
41653;SDS011;68687;52.030;7.110;2023-05-07T05:22:38;43.67;;;29.02;;
41653;SDS011;68687;52.030;7.110;2023-05-07T05:25:04;43.28;;;29.17;;
41653;SDS011;68687;52.030;7.110;2023-05-07T05:27:32;45.80;;;30.27;;
41653;SDS011;68687;52.030;7.110;2023-05-07T05:30:01;46.50;;;29.50;;
41653;SDS011;68687;52.030;7.110;2023-05-07T05:32:26;47.97;;;30.60;;
41653;SDS011;68687;52.030;7.110;2023-05-07T05:34:51;48.65;;;29.17;;
41653;SDS011;68687;52.030;7.110;2023-05-07T05:37:20;44.05;;;30.55;;
41653;SDS011;68687;52.030;7.110;2023-05-07T05:39:45;47.53;;;30.42;;
41653;SDS011;68687;52.030;7.110;2023-05-07T05:42:10;43.17;;;28.92;;
41653;SDS011;68687;52.030;7.110;2023-05-07T05:44:36;47.17;;;30.40;;
41653;SDS011;68687;52.030;7.110;2023-05-07T05:47:01;45.92;;;30.33;;
41653;SDS011;68687;52.030;7.110;2023-05-07T05:49:29;44.95;;;30.13;;
41653;SDS011;68687;52.030;7.110;2023-05-07T05:51:58;46.97;;;29.48;;
41653;SDS011;68687;52.030;7.110;2023-05-07T05:54:23;41.30;;;29.42;;
41653;SDS011;68687;52.030;7.110;2023-05-07T05:56:51;44.38;;;29.70;;
41653;SDS011;68687;52.030;7.110;2023-05-07T05:59:16;43.72;;;30.48;;
41653;SDS011;68687;52.030;7.110;2023-05-07T06:01:42;45.20;;;29.98;;
41653;SDS011;68687;52.030;7.110;2023-05-07T06:04:13;42.72;;;29.15;;
41653;SDS011;68687;52.030;7.110;2023-05-07T06:06:44;44.60;;;30.73;;
41653;SDS011;68687;52.030;7.110;2023-05-07T06:09:13;45.45;;;29.95;;
41653;SDS011;68687;52.030;7.110;2023-05-07T06:11:38;46.30;;;29.05;;
41653;SDS011;68687;52.030;7.110;2023-05-07T06:14:04;47.35;;;30.58;;
41653;SDS011;68687;52.030;7.110;2023-05-07T06:16:35;42.75;;;28.45;;
41653;SDS011;68687;52.030;7.110;2023-05-07T06:19:02;44.45;;;29.35;;
41653;SDS011;68687;52.030;7.110;2023-05-07T06:21:28;43.70;;;30.13;;
41653;SDS011;68687;52.030;7.110;2023-05-07T06:23:53;45.10;;;29.65;;
41653;SDS011;68687;52.030;7.110;2023-05-07T06:26:19;50.28;;;31.27;;
41653;SDS011;68687;52.030;7.110;2023-05-07T06:28:48;38.90;;;27.95;;
41653;SDS011;68687;52.030;7.110;2023-05-07T06:31:18;45.55;;;28.42;;
41653;SDS011;68687;52.030;7.110;2023-05-07T06:33:47;41.47;;;28.88;;
41653;SDS011;68687;52.030;7.110;2023-05-07T06:36:13;45.33;;;28.40;;
41653;SDS011;68687;52.030;7.110;2023-05-07T06:38:38;38.53;;;27.63;;
41653;SDS011;68687;52.030;7.110;2023-05-07T06:41:07;41.72;;;27.73;;
41653;SDS011;68687;52.030;7.110;2023-05-07T06:43:32;45.08;;;27.92;;
41653;SDS011;68687;52.030;7.110;2023-05-07T06:46:01;43.35;;;27.95;;
41653;SDS011;68687;52.030;7.110;2023-05-07T06:48:26;41.70;;;27.50;;
41653;SDS011;68687;52.030;7.110;2023-05-07T06:50:51;40.42;;;26.88;;
41653;SDS011;68687;52.030;7.110;2023-05-07T06:53:16;51.63;;;28.88;;
41653;SDS011;68687;52.030;7.110;2023-05-07T06:55:42;39.50;;;28.08;;
41653;SDS011;68687;52.030;7.110;2023-05-07T06:58:07;39.50;;;26.95;;
41653;SDS011;68687;52.030;7.110;2023-05-07T07:00:32;37.42;;;27.15;;
41653;SDS011;68687;52.030;7.110;2023-05-07T07:02:58;41.28;;;26.58;;
41653;SDS011;68687;52.030;7.110;2023-05-07T07:05:24;38.00;;;26.25;;
41653;SDS011;68687;52.030;7.110;2023-05-07T07:07:49;41.35;;;26.95;;
41653;SDS011;68687;52.030;7.110;2023-05-07T07:10:20;40.28;;;27.35;;
41653;SDS011;68687;52.030;7.110;2023-05-07T07:12:47;37.45;;;26.70;;
41653;SDS011;68687;52.030;7.110;2023-05-07T07:15:13;40.45;;;25.35;;
41653;SDS011;68687;52.030;7.110;2023-05-07T07:17:44;37.00;;;25.40;;
41653;SDS011;68687;52.030;7.110;2023-05-07T07:20:10;40.97;;;26.63;;
41653;SDS011;68687;52.030;7.110;2023-05-07T07:22:35;43.38;;;27.83;;
41653;SDS011;68687;52.030;7.110;2023-05-07T07:25:00;37.83;;;25.73;;
41653;SDS011;68687;52.030;7.110;2023-05-07T07:27:26;39.15;;;26.70;;
41653;SDS011;68687;52.030;7.110;2023-05-07T07:29:54;39.72;;;25.30;;
41653;SDS011;68687;52.030;7.110;2023-05-07T07:32:19;34.53;;;24.90;;
41653;SDS011;68687;52.030;7.110;2023-05-07T07:34:45;37.65;;;26.40;;
41653;SDS011;68687;52.030;7.110;2023-05-07T07:37:13;37.25;;;25.55;;
41653;SDS011;68687;52.030;7.110;2023-05-07T07:39:38;34.47;;;24.95;;
41653;SDS011;68687;52.030;7.110;2023-05-07T07:42:04;35.08;;;23.02;;
41653;SDS011;68687;52.030;7.110;2023-05-07T07:44:29;34.90;;;25.15;;
41653;SDS011;68687;52.030;7.110;2023-05-07T07:46:55;39.47;;;26.67;;
41653;SDS011;68687;52.030;7.110;2023-05-07T07:49:20;38.40;;;25.48;;
41653;SDS011;68687;52.030;7.110;2023-05-07T07:51:48;40.03;;;25.75;;
41653;SDS011;68687;52.030;7.110;2023-05-07T07:54:14;31.45;;;24.60;;
41653;SDS011;68687;52.030;7.110;2023-05-07T07:56:39;35.60;;;25.95;;
41653;SDS011;68687;52.030;7.110;2023-05-07T07:59:04;36.38;;;24.70;;
41653;SDS011;68687;52.030;7.110;2023-05-07T08:01:33;35.55;;;24.52;;
41653;SDS011;68687;52.030;7.110;2023-05-07T08:03:58;36.20;;;24.38;;
41653;SDS011;68687;52.030;7.110;2023-05-07T08:06:24;33.38;;;24.55;;
41653;SDS011;68687;52.030;7.110;2023-05-07T08:08:50;35.38;;;24.02;;
41653;SDS011;68687;52.030;7.110;2023-05-07T08:11:22;35.50;;;24.70;;
41653;SDS011;68687;52.030;7.110;2023-05-07T08:13:47;38.00;;;23.63;;
41653;SDS011;68687;52.030;7.110;2023-05-07T08:16:13;36.97;;;25.17;;
41653;SDS011;68687;52.030;7.110;2023-05-07T08:18:38;38.90;;;24.83;;
41653;SDS011;68687;52.030;7.110;2023-05-07T08:21:07;31.20;;;23.58;;
41653;SDS011;68687;52.030;7.110;2023-05-07T08:23:32;31.60;;;22.98;;
41653;SDS011;68687;52.030;7.110;2023-05-07T08:25:59;38.40;;;24.15;;
41653;SDS011;68687;52.030;7.110;2023-05-07T08:28:24;34.03;;;23.75;;
41653;SDS011;68687;52.030;7.110;2023-05-07T08:30:50;33.55;;;23.30;;
41653;SDS011;68687;52.030;7.110;2023-05-07T08:33:18;38.72;;;23.55;;
41653;SDS011;68687;52.030;7.110;2023-05-07T08:35:43;38.08;;;25.23;;
41653;SDS011;68687;52.030;7.110;2023-05-07T08:38:14;30.45;;;22.98;;
41653;SDS011;68687;52.030;7.110;2023-05-07T08:40:40;33.70;;;24.00;;
41653;SDS011;68687;52.030;7.110;2023-05-07T08:43:08;30.08;;;22.02;;
41653;SDS011;68687;52.030;7.110;2023-05-07T08:45:35;35.28;;;24.00;;
41653;SDS011;68687;52.030;7.110;2023-05-07T08:48:05;35.22;;;22.60;;
41653;SDS011;68687;52.030;7.110;2023-05-07T08:50:35;33.63;;;23.75;;
41653;SDS011;68687;52.030;7.110;2023-05-07T08:53:04;38.38;;;25.08;;
41653;SDS011;68687;52.030;7.110;2023-05-07T08:55:30;35.78;;;24.10;;
41653;SDS011;68687;52.030;7.110;2023-05-07T08:57:55;38.55;;;23.67;;
41653;SDS011;68687;52.030;7.110;2023-05-07T09:00:21;33.92;;;24.05;;
41653;SDS011;68687;52.030;7.110;2023-05-07T09:02:49;34.65;;;23.67;;
41653;SDS011;68687;52.030;7.110;2023-05-07T09:05:15;34.17;;;24.23;;
41653;SDS011;68687;52.030;7.110;2023-05-07T09:07:40;36.40;;;23.80;;
41653;SDS011;68687;52.030;7.110;2023-05-07T09:10:06;36.63;;;26.15;;
41653;SDS011;68687;52.030;7.110;2023-05-07T09:12:32;28.80;;;21.67;;
41653;SDS011;68687;52.030;7.110;2023-05-07T09:14:58;31.00;;;22.73;;
41653;SDS011;68687;52.030;7.110;2023-05-07T09:17:24;33.50;;;23.27;;
41653;SDS011;68687;52.030;7.110;2023-05-07T09:19:49;33.42;;;24.13;;
41653;SDS011;68687;52.030;7.110;2023-05-07T09:22:15;31.95;;;24.42;;
41653;SDS011;68687;52.030;7.110;2023-05-07T09:24:47;33.10;;;23.50;;
41653;SDS011;68687;52.030;7.110;2023-05-07T09:27:33;31.85;;;24.05;;
41653;SDS011;68687;52.030;7.110;2023-05-07T09:29:58;30.15;;;22.60;;
41653;SDS011;68687;52.030;7.110;2023-05-07T09:32:24;33.05;;;22.42;;
41653;SDS011;68687;52.030;7.110;2023-05-07T09:34:50;27.08;;;21.63;;
41653;SDS011;68687;52.030;7.110;2023-05-07T09:37:15;30.50;;;23.38;;
41653;SDS011;68687;52.030;7.110;2023-05-07T09:42:07;25.95;;;20.70;;
41653;SDS011;68687;52.030;7.110;2023-05-07T09:44:33;31.92;;;21.50;;
41653;SDS011;68687;52.030;7.110;2023-05-07T09:46:59;30.00;;;21.35;;
41653;SDS011;68687;52.030;7.110;2023-05-07T09:49:25;29.67;;;22.23;;
41653;SDS011;68687;52.030;7.110;2023-05-07T09:51:55;30.33;;;22.27;;
41653;SDS011;68687;52.030;7.110;2023-05-07T09:54:21;29.98;;;21.83;;
41653;SDS011;68687;52.030;7.110;2023-05-07T09:56:50;31.50;;;22.65;;
41653;SDS011;68687;52.030;7.110;2023-05-07T09:59:16;29.80;;;22.67;;
41653;SDS011;68687;52.030;7.110;2023-05-07T10:01:43;32.67;;;22.85;;
41653;SDS011;68687;52.030;7.110;2023-05-07T10:04:12;30.38;;;20.77;;
41653;SDS011;68687;52.030;7.110;2023-05-07T10:06:39;36.75;;;25.02;;
41653;SDS011;68687;52.030;7.110;2023-05-07T10:09:05;36.75;;;24.42;;
41653;SDS011;68687;52.030;7.110;2023-05-07T10:11:32;31.27;;;22.33;;
41653;SDS011;68687;52.030;7.110;2023-05-07T10:13:58;32.00;;;22.80;;
41653;SDS011;68687;52.030;7.110;2023-05-07T10:16:26;29.70;;;21.50;;
41653;SDS011;68687;52.030;7.110;2023-05-07T10:18:52;28.60;;;22.80;;
41653;SDS011;68687;52.030;7.110;2023-05-07T10:21:20;31.27;;;22.80;;
41653;SDS011;68687;52.030;7.110;2023-05-07T10:23:51;33.00;;;23.10;;
41653;SDS011;68687;52.030;7.110;2023-05-07T10:26:22;29.65;;;23.63;;
41653;SDS011;68687;52.030;7.110;2023-05-07T10:28:51;34.60;;;24.27;;
41653;SDS011;68687;52.030;7.110;2023-05-07T10:34:19;32.80;;;21.70;;
41653;SDS011;68687;52.030;7.110;2023-05-07T10:36:54;28.67;;;21.92;;
41653;SDS011;68687;52.030;7.110;2023-05-07T10:39:21;30.83;;;22.20;;
41653;SDS011;68687;52.030;7.110;2023-05-07T10:41:47;29.58;;;22.55;;
41653;SDS011;68687;52.030;7.110;2023-05-07T10:44:26;29.45;;;22.60;;
41653;SDS011;68687;52.030;7.110;2023-05-07T10:54:44;29.08;;;21.33;;
41653;SDS011;68687;52.030;7.110;2023-05-07T10:57:32;29.02;;;22.27;;
41653;SDS011;68687;52.030;7.110;2023-05-07T11:00:00;27.17;;;20.60;;
41653;SDS011;68687;52.030;7.110;2023-05-07T11:05:24;24.05;;;18.20;;
41653;SDS011;68687;52.030;7.110;2023-05-07T11:07:54;23.42;;;17.00;;
41653;SDS011;68687;52.030;7.110;2023-05-07T11:13:18;32.33;;;22.48;;
41653;SDS011;68687;52.030;7.110;2023-05-07T11:16:16;28.38;;;20.63;;
41653;SDS011;68687;52.030;7.110;2023-05-07T11:18:51;28.27;;;21.20;;
41653;SDS011;68687;52.030;7.110;2023-05-07T11:24:06;27.33;;;19.23;;
41653;SDS011;68687;52.030;7.110;2023-05-07T11:26:54;22.90;;;18.35;;
41653;SDS011;68687;52.030;7.110;2023-05-07T11:29:19;22.70;;;17.05;;
41653;SDS011;68687;52.030;7.110;2023-05-07T11:31:49;22.27;;;18.10;;
41653;SDS011;68687;52.030;7.110;2023-05-07T11:34:22;24.08;;;17.75;;
41653;SDS011;68687;52.030;7.110;2023-05-07T11:36:49;26.33;;;19.10;;
41653;SDS011;68687;52.030;7.110;2023-05-07T11:39:31;23.88;;;18.40;;
41653;SDS011;68687;52.030;7.110;2023-05-07T11:42:01;24.90;;;16.30;;
41653;SDS011;68687;52.030;7.110;2023-05-07T11:44:45;21.90;;;17.35;;
41653;SDS011;68687;52.030;7.110;2023-05-07T11:47:11;24.23;;;17.05;;
41653;SDS011;68687;52.030;7.110;2023-05-07T11:49:41;28.02;;;18.77;;
41653;SDS011;68687;52.030;7.110;2023-05-07T11:52:07;23.50;;;17.42;;
41653;SDS011;68687;52.030;7.110;2023-05-07T11:54:36;21.13;;;16.10;;
41653;SDS011;68687;52.030;7.110;2023-05-07T11:57:02;20.65;;;15.88;;
41653;SDS011;68687;52.030;7.110;2023-05-07T11:59:27;19.40;;;15.27;;
41653;SDS011;68687;52.030;7.110;2023-05-07T12:01:55;22.90;;;17.20;;
41653;SDS011;68687;52.030;7.110;2023-05-07T12:04:25;24.48;;;17.35;;
41653;SDS011;68687;52.030;7.110;2023-05-07T12:06:53;21.50;;;16.92;;
41653;SDS011;68687;52.030;7.110;2023-05-07T12:09:23;23.15;;;16.02;;
41653;SDS011;68687;52.030;7.110;2023-05-07T12:11:49;20.52;;;15.75;;
41653;SDS011;68687;52.030;7.110;2023-05-07T12:14:19;20.60;;;15.63;;
41653;SDS011;68687;52.030;7.110;2023-05-07T12:16:44;19.05;;;14.20;;
41653;SDS011;68687;52.030;7.110;2023-05-07T12:19:10;20.45;;;15.65;;
41653;SDS011;68687;52.030;7.110;2023-05-07T12:21:42;19.42;;;15.65;;
41653;SDS011;68687;52.030;7.110;2023-05-07T12:24:14;22.20;;;15.90;;
41653;SDS011;68687;52.030;7.110;2023-05-07T12:26:39;24.15;;;17.25;;
41653;SDS011;68687;52.030;7.110;2023-05-07T12:29:06;22.77;;;15.60;;
41653;SDS011;68687;52.030;7.110;2023-05-07T12:31:40;22.25;;;15.07;;
41653;SDS011;68687;52.030;7.110;2023-05-07T12:34:11;18.88;;;14.88;;
41653;SDS011;68687;52.030;7.110;2023-05-07T12:36:40;17.70;;;14.77;;
41653;SDS011;68687;52.030;7.110;2023-05-07T12:39:11;17.13;;;13.45;;
41653;SDS011;68687;52.030;7.110;2023-05-07T12:41:56;17.00;;;12.30;;
41653;SDS011;68687;52.030;7.110;2023-05-07T12:44:23;17.67;;;12.93;;
41653;SDS011;68687;52.030;7.110;2023-05-07T12:46:50;22.13;;;14.68;;
41653;SDS011;68687;52.030;7.110;2023-05-07T12:49:16;19.27;;;13.45;;
41653;SDS011;68687;52.030;7.110;2023-05-07T12:51:49;18.30;;;13.15;;
41653;SDS011;68687;52.030;7.110;2023-05-07T12:54:37;19.08;;;13.15;;
41653;SDS011;68687;52.030;7.110;2023-05-07T12:57:08;14.20;;;11.60;;
41653;SDS011;68687;52.030;7.110;2023-05-07T12:59:38;16.02;;;11.88;;
41653;SDS011;68687;52.030;7.110;2023-05-07T13:02:08;17.45;;;11.63;;
41653;SDS011;68687;52.030;7.110;2023-05-07T13:04:34;13.93;;;10.30;;
41653;SDS011;68687;52.030;7.110;2023-05-07T13:07:00;12.43;;;10.48;;
41653;SDS011;68687;52.030;7.110;2023-05-07T13:09:25;12.68;;;10.95;;
41653;SDS011;68687;52.030;7.110;2023-05-07T13:12:00;16.33;;;12.45;;
41653;SDS011;68687;52.030;7.110;2023-05-07T13:14:26;14.00;;;11.55;;
41653;SDS011;68687;52.030;7.110;2023-05-07T13:16:51;15.48;;;11.07;;
41653;SDS011;68687;52.030;7.110;2023-05-07T13:19:16;13.93;;;9.88;;
41653;SDS011;68687;52.030;7.110;2023-05-07T13:21:42;12.20;;;10.80;;
41653;SDS011;68687;52.030;7.110;2023-05-07T13:24:07;10.55;;;9.07;;
41653;SDS011;68687;52.030;7.110;2023-05-07T13:26:33;12.70;;;10.65;;
41653;SDS011;68687;52.030;7.110;2023-05-07T13:29:01;13.70;;;9.57;;
41653;SDS011;68687;52.030;7.110;2023-05-07T13:31:26;14.38;;;10.88;;
41653;SDS011;68687;52.030;7.110;2023-05-07T13:33:52;10.13;;;9.02;;
41653;SDS011;68687;52.030;7.110;2023-05-07T13:36:20;11.32;;;9.68;;
41653;SDS011;68687;52.030;7.110;2023-05-07T13:38:49;9.50;;;8.25;;
41653;SDS011;68687;52.030;7.110;2023-05-07T13:41:16;10.30;;;9.00;;
41653;SDS011;68687;52.030;7.110;2023-05-07T13:43:44;14.35;;;9.68;;
41653;SDS011;68687;52.030;7.110;2023-05-07T13:46:10;12.02;;;8.15;;
41653;SDS011;68687;52.030;7.110;2023-05-07T13:48:35;7.55;;;6.72;;
41653;SDS011;68687;52.030;7.110;2023-05-07T13:51:00;11.27;;;7.68;;
41653;SDS011;68687;52.030;7.110;2023-05-07T13:53:32;8.57;;;6.80;;
41653;SDS011;68687;52.030;7.110;2023-05-07T13:55:57;10.00;;;7.75;;
41653;SDS011;68687;52.030;7.110;2023-05-07T13:58:22;9.43;;;7.45;;
41653;SDS011;68687;52.030;7.110;2023-05-07T14:00:47;7.40;;;6.53;;
41653;SDS011;68687;52.030;7.110;2023-05-07T14:03:13;8.55;;;7.53;;
41653;SDS011;68687;52.030;7.110;2023-05-07T14:05:38;8.00;;;7.05;;
41653;SDS011;68687;52.030;7.110;2023-05-07T14:08:06;8.57;;;7.07;;
41653;SDS011;68687;52.030;7.110;2023-05-07T14:10:32;10.05;;;8.32;;
41653;SDS011;68687;52.030;7.110;2023-05-07T14:12:59;11.68;;;9.30;;
41653;SDS011;68687;52.030;7.110;2023-05-07T14:15:24;10.10;;;7.68;;
41653;SDS011;68687;52.030;7.110;2023-05-07T14:17:50;8.80;;;7.45;;
41653;SDS011;68687;52.030;7.110;2023-05-07T14:20:15;12.40;;;7.85;;
41653;SDS011;68687;52.030;7.110;2023-05-07T14:22:40;10.30;;;8.70;;
41653;SDS011;68687;52.030;7.110;2023-05-07T14:25:06;13.80;;;10.27;;
41653;SDS011;68687;52.030;7.110;2023-05-07T14:27:32;10.75;;;9.10;;
41653;SDS011;68687;52.030;7.110;2023-05-07T14:29:57;11.98;;;7.50;;
41653;SDS011;68687;52.030;7.110;2023-05-07T14:32:29;13.98;;;8.13;;
41653;SDS011;68687;52.030;7.110;2023-05-07T14:34:54;11.02;;;7.90;;
41653;SDS011;68687;52.030;7.110;2023-05-07T14:37:19;7.85;;;7.05;;
41653;SDS011;68687;52.030;7.110;2023-05-07T14:39:51;9.50;;;7.68;;
41653;SDS011;68687;52.030;7.110;2023-05-07T14:42:19;11.05;;;8.40;;
41653;SDS011;68687;52.030;7.110;2023-05-07T14:44:45;10.52;;;8.10;;
41653;SDS011;68687;52.030;7.110;2023-05-07T14:47:11;10.07;;;8.40;;